MSR1015 HECA-HESH
Flight info
| Callsign | MSR1015 |
|---|---|
| Flight time | 0h 39m |
| Altitude | 29000 |
| Route | 295142N0310949E DCT RASMI DCT GIDID DCT CF04L |
| Aircraft | A321/M-SDE3FGHIRWY/LB1 |
Departure
| Time | 2026-05-07 14:27 |
|---|---|
| Airport | Cairo International Airport (HECA) |
Arrival
| Time | 2026-05-07 15:07 |
|---|---|
| Airport | Sharm El Sheikh International Airport (HESH) |
| Time | Latitude | Longitude | Altitude | Speed | Heading |
|---|---|---|---|---|---|
| 2026-05-07 13:59 | 30.10807 | 31.39675 | 374 ft | 0 kts | 255° |
| 2026-05-07 14:12 | 30.10809 | 31.39685 | 374 ft | 4 kts | 253° |
| 2026-05-07 14:12 | 30.10818 | 31.39714 | 374 ft | 4 kts | 245° |
| 2026-05-07 14:12 | 30.10830 | 31.39741 | 374 ft | 4 kts | 229° |
| 2026-05-07 14:12 | 30.10848 | 31.39760 | 374 ft | 4 kts | 180° |
| 2026-05-07 14:13 | 30.10855 | 31.39761 | 374 ft | 0 kts | 165° |
| 2026-05-07 14:20 | 30.10852 | 31.39762 | 374 ft | 2 kts | 165° |
| 2026-05-07 14:20 | 30.10823 | 31.39771 | 374 ft | 7 kts | 164° |
| 2026-05-07 14:20 | 30.10765 | 31.39790 | 374 ft | 11 kts | 164° |
| 2026-05-07 14:20 | 30.10678 | 31.39818 | 374 ft | 15 kts | 164° |
| 2026-05-07 14:21 | 30.10577 | 31.39852 | 374 ft | 13 kts | 165° |
| 2026-05-07 14:21 | 30.10479 | 31.39876 | 374 ft | 16 kts | 172° |
| 2026-05-07 14:21 | 30.10378 | 31.39822 | 374 ft | 18 kts | 229° |
| 2026-05-07 14:21 | 30.10290 | 31.39700 | 374 ft | 21 kts | 230° |
| 2026-05-07 14:22 | 30.10184 | 31.39578 | 374 ft | 22 kts | 200° |
| 2026-05-07 14:22 | 30.10150 | 31.39572 | 374 ft | 0 kts | 166° |
| 2026-05-07 14:22 | 30.10149 | 31.39575 | 374 ft | 0 kts | 147° |
| 2026-05-07 14:22 | 30.10139 | 31.39586 | 374 ft | 4 kts | 141° |
| 2026-05-07 14:23 | 30.10104 | 31.39618 | 374 ft | 8 kts | 141° |
| 2026-05-07 14:23 | 30.10048 | 31.39671 | 374 ft | 12 kts | 140° |
| 2026-05-07 14:23 | 30.10030 | 31.39688 | 374 ft | 0 kts | 140° |
| 2026-05-07 14:25 | 30.10022 | 31.39697 | 374 ft | 4 kts | 137° |
| 2026-05-07 14:25 | 30.10004 | 31.39737 | 374 ft | 8 kts | 112° |
| 2026-05-07 14:25 | 30.09991 | 31.39805 | 374 ft | 9 kts | 98° |
| 2026-05-07 14:25 | 30.09997 | 31.39862 | 372 ft | 7 kts | 67° |
| 2026-05-07 14:26 | 30.10035 | 31.39913 | 370 ft | 11 kts | 52° |
| 2026-05-07 14:26 | 30.10049 | 31.39932 | 370 ft | 0 kts | 50° |
| 2026-05-07 14:26 | 30.10052 | 31.39936 | 370 ft | 3 kts | 50° |
| 2026-05-07 14:27 | 30.10237 | 31.40184 | 374 ft | 88 kts | 49° |
| 2026-05-07 14:27 | 30.10826 | 31.40960 | 372 ft | 164 kts | 48° |
| 2026-05-07 14:27 | 30.11669 | 31.42052 | 731 ft | 196 kts | 47° |
| 2026-05-07 14:27 | 30.12512 | 31.43315 | 1806 ft | 191 kts | 58° |
| 2026-05-07 14:28 | 30.12857 | 31.44793 | 2918 ft | 202 kts | 89° |
| 2026-05-07 14:28 | 30.12393 | 31.46416 | 3470 ft | 231 kts | 122° |
| 2026-05-07 14:28 | 30.11388 | 31.47985 | 4058 ft | 255 kts | 125° |
| 2026-05-07 14:28 | 30.10272 | 31.49677 | 4819 ft | 271 kts | 126° |
| 2026-05-07 14:29 | 30.08848 | 31.51116 | 5833 ft | 279 kts | 151° |
| 2026-05-07 14:29 | 30.06993 | 31.51771 | 6823 ft | 286 kts | 168° |
| 2026-05-07 14:29 | 30.05022 | 31.52182 | 7823 ft | 290 kts | 169° |
| 2026-05-07 14:29 | 30.03041 | 31.52569 | 8771 ft | 295 kts | 169° |
| 2026-05-07 14:30 | 30.01010 | 31.52980 | 9680 ft | 299 kts | 169° |
| 2026-05-07 14:30 | 29.98946 | 31.53423 | 10521 ft | 307 kts | 169° |
| 2026-05-07 14:30 | 29.96768 | 31.53901 | 10870 ft | 331 kts | 169° |
| 2026-05-07 14:30 | 29.94431 | 31.54414 | 11232 ft | 351 kts | 169° |
| 2026-05-07 14:31 | 29.92005 | 31.54946 | 11971 ft | 357 kts | 170° |
| 2026-05-07 14:31 | 29.89559 | 31.55484 | 12805 ft | 360 kts | 170° |
| 2026-05-07 14:31 | 29.87075 | 31.56029 | 13585 ft | 365 kts | 170° |
| 2026-05-07 14:31 | 29.84567 | 31.56576 | 14374 ft | 369 kts | 171° |
| 2026-05-07 14:32 | 29.82022 | 31.57130 | 15116 ft | 374 kts | 171° |
| 2026-05-07 14:32 | 29.79486 | 31.57681 | 15854 ft | 378 kts | 171° |
| 2026-05-07 14:32 | 29.76888 | 31.58245 | 16600 ft | 382 kts | 171° |
| 2026-05-07 14:32 | 29.74262 | 31.58816 | 17275 ft | 386 kts | 171° |
| 2026-05-07 14:33 | 29.71603 | 31.59393 | 17942 ft | 391 kts | 171° |
| 2026-05-07 14:33 | 29.68917 | 31.59976 | 18613 ft | 394 kts | 171° |
| 2026-05-07 14:33 | 29.66210 | 31.60562 | 19259 ft | 398 kts | 171° |
| 2026-05-07 14:33 | 29.63480 | 31.61153 | 19883 ft | 401 kts | 171° |
| 2026-05-07 14:34 | 29.60728 | 31.61748 | 20512 ft | 405 kts | 171° |
| 2026-05-07 14:34 | 29.57943 | 31.62348 | 21105 ft | 408 kts | 171° |
| 2026-05-07 14:34 | 29.55137 | 31.62953 | 21711 ft | 411 kts | 171° |
| 2026-05-07 14:34 | 29.52315 | 31.63562 | 22269 ft | 415 kts | 171° |
| 2026-05-07 14:35 | 29.49458 | 31.64179 | 22812 ft | 418 kts | 171° |
| 2026-05-07 14:35 | 29.46587 | 31.64799 | 23029 ft | 421 kts | 171° |
| 2026-05-07 14:35 | 29.43707 | 31.65420 | 23047 ft | 419 kts | 170° |
| 2026-05-07 14:35 | 29.40843 | 31.66038 | 23047 ft | 419 kts | 170° |
| 2026-05-07 14:36 | 29.37971 | 31.66657 | 23118 ft | 422 kts | 171° |
| 2026-05-07 14:36 | 29.35073 | 31.67281 | 23677 ft | 423 kts | 170° |
| 2026-05-07 14:36 | 29.32174 | 31.67905 | 24213 ft | 426 kts | 170° |
| 2026-05-07 14:36 | 29.29247 | 31.68536 | 24702 ft | 429 kts | 170° |
| 2026-05-07 14:37 | 29.26317 | 31.69166 | 25197 ft | 432 kts | 170° |
| 2026-05-07 14:37 | 29.20395 | 31.70440 | 26098 ft | 437 kts | 171° |
| 2026-05-07 14:37 | 29.17395 | 31.71085 | 26541 ft | 440 kts | 171° |
| 2026-05-07 14:38 | 29.14383 | 31.71732 | 26937 ft | 442 kts | 171° |
| 2026-05-07 14:38 | 29.11350 | 31.72382 | 27363 ft | 444 kts | 171° |
| 2026-05-07 14:38 | 29.08300 | 31.73036 | 27740 ft | 447 kts | 171° |
| 2026-05-07 14:38 | 29.05237 | 31.73700 | 28090 ft | 450 kts | 169° |
| 2026-05-07 14:39 | 29.02248 | 31.74802 | 28439 ft | 454 kts | 156° |
| 2026-05-07 14:39 | 28.99514 | 31.76634 | 28746 ft | 459 kts | 143° |
| 2026-05-07 14:39 | 28.97164 | 31.79118 | 29003 ft | 463 kts | 131° |
| 2026-05-07 14:39 | 28.95302 | 31.82126 | 29025 ft | 464 kts | 118° |
| 2026-05-07 14:40 | 28.92708 | 31.88822 | 29038 ft | 464 kts | 112° |
| 2026-05-07 14:40 | 28.90190 | 31.95622 | 29038 ft | 464 kts | 114° |
| 2026-05-07 14:41 | 28.87560 | 32.02299 | 29036 ft | 464 kts | 115° |
| 2026-05-07 14:41 | 28.84877 | 32.08988 | 29028 ft | 464 kts | 115° |
| 2026-05-07 14:42 | 28.82640 | 32.14553 | 29027 ft | 464 kts | 115° |
| 2026-05-07 14:42 | 28.79949 | 32.21240 | 29019 ft | 464 kts | 115° |
| 2026-05-07 14:43 | 28.77252 | 32.27930 | 29017 ft | 464 kts | 115° |
| 2026-05-07 14:43 | 28.74571 | 32.34575 | 28999 ft | 464 kts | 115° |
| 2026-05-07 14:44 | 28.71870 | 32.41260 | 28999 ft | 463 kts | 115° |
| 2026-05-07 14:44 | 28.69171 | 32.47929 | 28990 ft | 464 kts | 115° |
| 2026-05-07 14:45 | 28.66464 | 32.54603 | 28985 ft | 464 kts | 115° |
| 2026-05-07 14:45 | 28.63754 | 32.61275 | 28973 ft | 464 kts | 115° |
| 2026-05-07 14:46 | 28.61061 | 32.67899 | 28958 ft | 464 kts | 115° |
| 2026-05-07 14:46 | 28.58348 | 32.74560 | 28960 ft | 465 kts | 115° |
| 2026-05-07 14:47 | 28.55625 | 32.81228 | 28884 ft | 463 kts | 116° |
| 2026-05-07 14:47 | 28.54271 | 32.84541 | 28325 ft | 462 kts | 115° |
| 2026-05-07 14:47 | 28.52914 | 32.87861 | 27409 ft | 465 kts | 115° |
| 2026-05-07 14:48 | 28.51542 | 32.91212 | 26352 ft | 469 kts | 115° |
| 2026-05-07 14:48 | 28.50175 | 32.94549 | 25600 ft | 463 kts | 115° |
| 2026-05-07 14:48 | 28.48821 | 32.97850 | 24819 ft | 458 kts | 115° |
| 2026-05-07 14:48 | 28.47483 | 33.01110 | 24225 ft | 449 kts | 115° |
| 2026-05-07 14:49 | 28.46177 | 33.04290 | 23741 ft | 437 kts | 115° |
| 2026-05-07 14:49 | 28.44903 | 33.07390 | 23188 ft | 429 kts | 116° |
| 2026-05-07 14:49 | 28.43651 | 33.10432 | 22629 ft | 421 kts | 116° |
| 2026-05-07 14:49 | 28.42419 | 33.13425 | 22066 ft | 414 kts | 116° |
| 2026-05-07 14:50 | 28.41209 | 33.16363 | 21522 ft | 407 kts | 116° |
| 2026-05-07 14:50 | 28.40019 | 33.19251 | 20989 ft | 400 kts | 116° |
| 2026-05-07 14:50 | 28.38844 | 33.22099 | 20437 ft | 394 kts | 116° |
| 2026-05-07 14:50 | 28.37692 | 33.24893 | 19923 ft | 388 kts | 116° |
| 2026-05-07 14:51 | 28.36566 | 33.27616 | 19497 ft | 386 kts | 116° |
| 2026-05-07 14:51 | 28.35389 | 33.30458 | 19062 ft | 407 kts | 116° |
| 2026-05-07 14:51 | 28.34238 | 33.33237 | 18527 ft | 414 kts | 116° |
| 2026-05-07 14:51 | 28.32979 | 33.36277 | 17948 ft | 413 kts | 116° |
| 2026-05-07 14:52 | 28.31761 | 33.39218 | 17382 ft | 407 kts | 116° |
| 2026-05-07 14:52 | 28.30570 | 33.42095 | 16831 ft | 399 kts | 116° |
| 2026-05-07 14:52 | 28.29398 | 33.44923 | 16283 ft | 392 kts | 116° |
| 2026-05-07 14:52 | 28.28249 | 33.47691 | 15748 ft | 384 kts | 116° |
| 2026-05-07 14:53 | 28.27120 | 33.50409 | 15224 ft | 377 kts | 116° |
| 2026-05-07 14:53 | 28.26008 | 33.53078 | 14713 ft | 371 kts | 116° |
| 2026-05-07 14:53 | 28.24915 | 33.55701 | 14201 ft | 364 kts | 116° |
| 2026-05-07 14:53 | 28.23844 | 33.58276 | 13703 ft | 358 kts | 116° |
| 2026-05-07 14:54 | 28.22787 | 33.60810 | 13225 ft | 353 kts | 117° |
| 2026-05-07 14:54 | 28.21648 | 33.63233 | 12487 ft | 355 kts | 122° |
| 2026-05-07 14:54 | 28.20297 | 33.65565 | 11982 ft | 352 kts | 127° |
| 2026-05-07 14:54 | 28.18814 | 33.67775 | 11719 ft | 354 kts | 128° |
| 2026-05-07 14:55 | 28.17318 | 33.70010 | 11326 ft | 356 kts | 128° |
| 2026-05-07 14:55 | 28.15833 | 33.72246 | 10873 ft | 353 kts | 128° |
| 2026-05-07 14:55 | 28.14389 | 33.74423 | 10700 ft | 337 kts | 127° |
| 2026-05-07 14:55 | 28.13010 | 33.76501 | 10554 ft | 322 kts | 127° |
| 2026-05-07 14:56 | 28.11698 | 33.78476 | 10421 ft | 307 kts | 127° |
| 2026-05-07 14:56 | 28.10434 | 33.80376 | 10167 ft | 297 kts | 127° |
| 2026-05-07 14:56 | 28.09194 | 33.82237 | 9814 ft | 292 kts | 127° |
| 2026-05-07 14:56 | 28.07960 | 33.84085 | 9560 ft | 298 kts | 127° |
| 2026-05-07 14:57 | 28.06714 | 33.85952 | 9206 ft | 295 kts | 127° |
| 2026-05-07 14:57 | 28.05486 | 33.87792 | 8854 ft | 290 kts | 127° |
| 2026-05-07 14:57 | 28.04295 | 33.89574 | 8512 ft | 285 kts | 127° |
| 2026-05-07 14:57 | 28.03095 | 33.91374 | 8165 ft | 288 kts | 127° |
| 2026-05-07 14:58 | 28.01894 | 33.93171 | 7812 ft | 284 kts | 127° |
| 2026-05-07 14:58 | 28.00710 | 33.94944 | 7474 ft | 282 kts | 127° |
| 2026-05-07 14:58 | 27.99528 | 33.96712 | 7129 ft | 282 kts | 127° |
| 2026-05-07 14:58 | 27.98349 | 33.98477 | 6775 ft | 280 kts | 127° |
| 2026-05-07 14:59 | 27.97181 | 34.00230 | 6486 ft | 278 kts | 127° |
| 2026-05-07 14:59 | 27.96020 | 34.01967 | 6496 ft | 276 kts | 127° |
| 2026-05-07 14:59 | 27.94846 | 34.03718 | 6421 ft | 280 kts | 127° |
| 2026-05-07 14:59 | 27.93662 | 34.05481 | 6038 ft | 281 kts | 127° |
| 2026-05-07 15:00 | 27.92485 | 34.07236 | 5611 ft | 279 kts | 127° |
| 2026-05-07 15:00 | 27.91315 | 34.08986 | 5187 ft | 277 kts | 127° |
| 2026-05-07 15:00 | 27.90176 | 34.10688 | 4831 ft | 274 kts | 127° |
| 2026-05-07 15:00 | 27.89022 | 34.12412 | 4504 ft | 274 kts | 127° |
| 2026-05-07 15:01 | 27.87883 | 34.14114 | 4176 ft | 269 kts | 128° |
| 2026-05-07 15:01 | 27.86744 | 34.15813 | 3779 ft | 273 kts | 128° |
| 2026-05-07 15:01 | 27.85591 | 34.17535 | 3354 ft | 274 kts | 128° |
| 2026-05-07 15:01 | 27.84438 | 34.19256 | 2915 ft | 275 kts | 128° |
| 2026-05-07 15:02 | 27.83445 | 34.21092 | 2528 ft | 276 kts | 108° |
| 2026-05-07 15:02 | 27.83430 | 34.23194 | 2393 ft | 264 kts | 71° |
| 2026-05-07 15:02 | 27.84290 | 34.24913 | 2399 ft | 240 kts | 51° |
| 2026-05-07 15:02 | 27.85373 | 34.26244 | 2397 ft | 219 kts | 43° |
| 2026-05-07 15:03 | 27.86425 | 34.27361 | 2409 ft | 198 kts | 42° |
| 2026-05-07 15:03 | 27.87392 | 34.28376 | 2395 ft | 191 kts | 42° |
| 2026-05-07 15:03 | 27.88351 | 34.29378 | 2393 ft | 184 kts | 42° |
| 2026-05-07 15:03 | 27.89285 | 34.30353 | 2169 ft | 180 kts | 43° |
| 2026-05-07 15:04 | 27.90185 | 34.31298 | 1924 ft | 175 kts | 44° |
| 2026-05-07 15:04 | 27.91079 | 34.32224 | 1694 ft | 174 kts | 45° |
| 2026-05-07 15:04 | 27.91955 | 34.33144 | 1458 ft | 169 kts | 45° |
| 2026-05-07 15:04 | 27.92797 | 34.34024 | 1242 ft | 164 kts | 45° |
| 2026-05-07 15:05 | 27.93618 | 34.34890 | 1023 ft | 158 kts | 43° |
| 2026-05-07 15:05 | 27.94426 | 34.35739 | 814 ft | 156 kts | 40° |
| 2026-05-07 15:05 | 27.95234 | 34.36580 | 609 ft | 158 kts | 42° |
| 2026-05-07 15:05 | 27.96032 | 34.37412 | 408 ft | 157 kts | 41° |
| 2026-05-07 15:06 | 27.96842 | 34.38260 | 200 ft | 158 kts | 42° |
| 2026-05-07 15:06 | 27.97613 | 34.39052 | 173 ft | 163 kts | 41° |
| 2026-05-07 15:06 | 27.98513 | 34.40063 | 233 ft | 196 kts | 39° |
| 2026-05-07 15:06 | 27.99386 | 34.40994 | 137 ft | 151 kts | 9° |
| 2026-05-07 15:07 | 27.99846 | 34.41036 | 103 ft | 8 kts | 260° |
| 2026-05-07 15:07 | 27.99840 | 34.41024 | 103 ft | 0 kts | 236° |
| 2026-05-07 15:07 | 27.98443 | 34.39499 | 174 ft | 0 kts | 294° |